Time,TemperatureF,DewpointF,PressureIn,WindDirection,WindDirectionDegrees,WindSpeedMPH,WindSpeedGustMPH,Humidity,HourlyPrecipIn,Conditions,Clouds,dailyrainin,SoftwareType,DateUTC
2013-07-07 00:03:00,56.2,53.0,29.88,West,269,0.0,-999.0,90,-99.99,,,0.01,weatherlink.com 1.10,2013-07-07 07:03:00,
2013-07-07 00:18:00,56.7,54.0,29.88,West,266,3.0,-999.0,89,-99.99,,,0.00,weatherlink.com 1.10,2013-07-07 07:18:00,
2013-07-07 00:38:00,57.0,54.0,29.88,WNW,287,0.0,-999.0,89,-99.99,,,0.00,weatherlink.com 1.10,2013-07-07 07:38:00,
2013-07-07 00:48:00,56.6,54.0,29.88,WNW,291,0.0,-999.0,90,-99.99,,,0.00,weatherlink.com 1.10,2013-07-07 07:48:00,
2013-07-07 01:03:00,56.4,54.0,29.88,WNW,302,5.0,-999.0,91,-99.99,,,0.00,weatherlink.com 1.10,2013-07-07 08:03:00,
2013-07-07 01:18:00,56.1,54.0,29.88,West,271,5.0,-999.0,92,-99.99,,,0.00,weatherlink.com 1.10,2013-07-07 08:18:00,
2013-07-07 01:38:00,56.2,54.0,29.88,WNW,294,5.0,-999.0,92,-99.99,,,0.00,weatherlink.com 1.10,2013-07-07 08:38:00,
2013-07-07 01:48:00,56.6,54.0,29.87,West,269,5.0,-999.0,90,-99.99,,,0.00,weatherlink.com 1.10,2013-07-07 08:48:00,
2013-07-07 02:03:00,56.8,54.0,29.88,West,275,3.0,-999.0,89,-99.99,,,0.00,weatherlink.com 1.10,2013-07-07 09:03:00,
2013-07-07 02:18:00,56.4,54.0,29.88,WNW,299,3.0,-999.0,91,-99.99,,,0.00,weatherlink.com 1.10,2013-07-07 09:18:00,
2013-07-07 02:38:00,56.4,54.0,29.88,West,277,5.0,-999.0,92,-99.99,,,0.00,weatherlink.com 1.10,2013-07-07 09:38:00,
2013-07-07 02:48:00,56.9,54.0,29.88,NE,39,0.0,-999.0,89,-99.99,,,0.00,weatherlink.com 1.10,2013-07-07 09:48:00,
2013-07-07 03:03:00,55.7,53.0,29.88,SE,142,0.0,-999.0,91,-99.99,,,0.00,weatherlink.com 1.10,2013-07-07 10:03:00,
2013-07-07 03:18:00,56.0,54.0,29.88,WNW,285,0.0,-999.0,91,-99.99,,,0.00,weatherlink.com 1.10,2013-07-07 10:18:00,
2013-07-07 03:38:00,56.0,54.0,29.87,WNW,283,0.0,-999.0,91,-99.99,,,0.00,weatherlink.com 1.10,2013-07-07 10:38:00,
2013-07-07 03:48:00,55.7,54.0,29.88,WNW,284,0.0,-999.0,92,-99.99,,,0.00,weatherlink.com 1.10,2013-07-07 10:48:00,
2013-07-07 04:03:00,55.3,53.0,29.88,WNW,286,0.0,-999.0,92,-99.99,,,0.00,weatherlink.com 1.10,2013-07-07 11:03:00,
2013-07-07 04:18:00,54.8,53.0,29.88,East,100,0.0,-999.0,93,-99.99,,,0.00,weatherlink.com 1.10,2013-07-07 11:18:00,
2013-07-07 04:38:00,54.4,53.0,29.88,East,100,0.0,-999.0,93,-99.99,,,0.00,weatherlink.com 1.10,2013-07-07 11:38:00,
2013-07-07 04:48:00,54.0,52.0,29.89,East,100,0.0,-999.0,93,-99.99,,,0.00,weatherlink.com 1.10,2013-07-07 11:48:00,
2013-07-07 05:03:00,53.5,52.0,29.89,East,100,0.0,-999.0,94,-99.99,,,0.00,weatherlink.com 1.10,2013-07-07 12:03:00,
2013-07-07 05:18:00,53.3,52.0,29.89,East,100,0.0,-999.0,94,-99.99,,,0.00,weatherlink.com 1.10,2013-07-07 12:18:00,
2013-07-07 05:38:00,53.2,52.0,29.89,East,100,0.0,-999.0,95,-99.99,,,0.00,weatherlink.com 1.10,2013-07-07 12:38:00,
2013-07-07 05:49:00,52.8,51.0,29.90,East,100,0.0,-999.0,94,-99.99,,,0.00,weatherlink.com 1.10,2013-07-07 12:49:00,
2013-07-07 06:04:00,52.7,51.0,29.89,East,100,0.0,-999.0,95,-99.99,,,0.00,weatherlink.com 1.10,2013-07-07 13:04:00,
2013-07-07 06:19:00,53.1,52.0,29.90,East,100,0.0,-999.0,96,-99.99,,,0.00,weatherlink.com 1.10,2013-07-07 13:19:00,
2013-07-07 06:38:00,53.9,53.0,29.90,East,100,0.0,-999.0,96,-99.99,,,0.00,weatherlink.com 1.10,2013-07-07 13:38:00,
2013-07-07 06:48:00,55.1,54.0,29.90,East,100,0.0,-999.0,96,-99.99,,,0.00,weatherlink.com 1.10,2013-07-07 13:48:00,
2013-07-07 07:03:00,56.2,55.0,29.90,WNW,296,0.0,-999.0,95,-99.99,,,0.00,weatherlink.com 1.10,2013-07-07 14:03:00,
2013-07-07 07:19:00,57.2,55.0,29.90,WNW,298,0.0,-999.0,93,-99.99,,,0.00,weatherlink.com 1.10,2013-07-07 14:19:00,
2013-07-07 07:39:00,57.9,56.0,29.90,NW,320,0.0,-999.0,92,-99.99,,,0.00,weatherlink.com 1.10,2013-07-07 14:39:00,
2013-07-07 07:49:00,59.0,56.0,29.91,WNW,294,0.0,-999.0,91,-99.99,,,0.00,weatherlink.com 1.10,2013-07-07 14:49:00,
2013-07-07 08:04:00,59.0,56.0,29.90,WNW,294,2.0,-999.0,89,-99.99,,,0.00,weatherlink.com 1.10,2013-07-07 15:04:00,
2013-07-07 08:19:00,59.7,56.0,29.91,West,269,5.0,-999.0,88,-99.99,,,0.00,weatherlink.com 1.10,2013-07-07 15:19:00,
2013-07-07 08:39:00,60.3,57.0,29.91,West,275,6.0,-999.0,87,-99.99,,,0.00,weatherlink.com 1.10,2013-07-07 15:39:00,
2013-07-07 08:49:00,61.5,57.0,29.91,West,265,0.0,-999.0,85,-99.99,,,0.00,weatherlink.com 1.10,2013-07-07 15:49:00,
2013-07-07 09:04:00,60.1,54.0,29.92,SE,131,7.0,-999.0,81,-99.99,,,0.00,weatherlink.com 1.10,2013-07-07 16:04:00,
2013-07-07 09:19:00,58.6,55.0,29.92,SE,142,6.0,-999.0,87,-99.99,,,0.00,weatherlink.com 1.10,2013-07-07 16:19:00,
2013-07-07 09:39:00,57.7,54.0,29.91,SE,144,2.0,-999.0,88,-99.99,,,0.00,weatherlink.com 1.10,2013-07-07 16:39:00,
2013-07-07 09:49:00,57.9,55.0,29.91,SSE,160,4.0,-999.0,89,-99.99,,,0.00,weatherlink.com 1.10,2013-07-07 16:49:00,
2013-07-07 10:04:00,59.4,56.0,29.91,North,5,0.0,-999.0,88,-99.99,,,0.00,weatherlink.com 1.10,2013-07-07 17:04:00,
2013-07-07 10:19:00,59.0,56.0,29.91,NNE,19,3.0,-999.0,88,-99.99,,,0.00,weatherlink.com 1.10,2013-07-07 17:19:00,
2013-07-07 10:39:00,59.0,55.0,29.91,NE,39,10.0,-999.0,87,-99.99,,,0.00,weatherlink.com 1.10,2013-07-07 17:39:00,
2013-07-07 10:49:00,58.5,55.0,29.91,NNE,27,11.0,-999.0,88,-99.99,,,0.00,weatherlink.com 1.10,2013-07-07 17:49:00,
2013-07-07 11:04:00,57.9,55.0,29.92,ENE,59,11.0,-999.0,90,-99.99,,,0.00,weatherlink.com 1.10,2013-07-07 18:04:00,
2013-07-07 11:19:00,58.1,55.0,29.92,NE,51,11.0,-999.0,89,-99.99,,,0.00,weatherlink.com 1.10,2013-07-07 18:19:00,
2013-07-07 11:39:00,58.3,55.0,29.92,NE,36,14.0,-999.0,89,-99.99,,,0.00,weatherlink.com 1.10,2013-07-07 18:39:00,
2013-07-07 11:49:00,58.2,55.0,29.92,ENE,57,2.0,-999.0,88,-99.99,,,0.00,weatherlink.com 1.10,2013-07-07 18:49:00,
2013-07-07 12:04:00,59.0,55.0,29.92,NE,55,11.0,-999.0,87,-99.99,,,0.00,weatherlink.com 1.10,2013-07-07 19:04:00,
2013-07-07 12:19:00,58.0,55.0,29.91,NE,46,14.0,-999.0,88,-99.99,,,0.00,weatherlink.com 1.10,2013-07-07 19:19:00,
2013-07-07 12:39:00,58.1,55.0,29.92,NE,38,13.0,-999.0,89,-99.99,,,0.00,weatherlink.com 1.10,2013-07-07 19:39:00,
2013-07-07 12:49:00,58.3,55.0,29.91,NNE,25,12.0,-999.0,88,-99.99,,,0.00,weatherlink.com 1.10,2013-07-07 19:49:00,
2013-07-07 13:04:00,58.7,55.0,29.91,NE,37,12.0,-999.0,87,-99.99,,,0.00,weatherlink.com 1.10,2013-07-07 20:04:00,
2013-07-07 13:19:00,59.8,56.0,29.92,NE,39,3.0,-999.0,86,-99.99,,,0.00,weatherlink.com 1.10,2013-07-07 20:19:00,
2013-07-07 13:39:00,60.0,56.0,29.91,NNE,29,7.0,-999.0,85,-99.99,,,0.00,weatherlink.com 1.10,2013-07-07 20:39:00,
2013-07-07 13:49:00,60.9,56.0,29.91,North,10,12.0,-999.0,83,-99.99,,,0.00,weatherlink.com 1.10,2013-07-07 20:49:00,
2013-07-07 14:04:00,61.0,56.0,29.91,NNE,19,7.0,-999.0,82,-99.99,,,0.00,weatherlink.com 1.10,2013-07-07 21:04:00,
2013-07-07 14:19:00,59.8,55.0,29.91,NE,35,10.0,-999.0,85,-99.99,,,0.00,weatherlink.com 1.10,2013-07-07 21:19:00,
2013-07-07 14:39:00,60.0,56.0,29.91,NE,43,6.0,-999.0,85,-99.99,,,0.00,weatherlink.com 1.10,2013-07-07 21:39:00,
2013-07-07 14:49:00,60.1,56.0,29.91,NE,50,2.0,-999.0,85,-99.99,,,0.00,weatherlink.com 1.10,2013-07-07 21:49:00,
2013-07-07 15:04:00,61.5,56.0,29.91,ENE,68,0.0,-999.0,83,-99.99,,,0.00,weatherlink.com 1.10,2013-07-07 22:04:00,
2013-07-07 15:19:00,63.2,57.0,29.90,ENE,78,2.0,-999.0,80,-99.99,,,0.00,weatherlink.com 1.10,2013-07-07 22:19:00,
2013-07-07 15:39:00,62.7,56.0,29.90,NE,40,6.0,-999.0,79,-99.99,,,0.00,weatherlink.com 1.10,2013-07-07 22:39:00,
2013-07-07 15:49:00,62.1,56.0,29.89,NE,51,6.0,-999.0,81,-99.99,,,0.00,weatherlink.com 1.10,2013-07-07 22:49:00,
2013-07-07 16:04:00,62.5,56.0,29.89,North,5,6.0,-999.0,80,-99.99,,,0.00,weatherlink.com 1.10,2013-07-07 23:04:00,
2013-07-07 16:19:00,63.3,56.0,29.89,North,5,3.0,-999.0,78,-99.99,,,0.00,weatherlink.com 1.10,2013-07-07 23:19:00,
2013-07-07 16:39:00,63.9,57.0,29.88,NNW,344,5.0,-999.0,77,-99.99,,,0.00,weatherlink.com 1.10,2013-07-07 23:39:00,
2013-07-07 16:49:00,63.2,56.0,29.88,North,355,7.0,-999.0,78,-99.99,,,0.00,weatherlink.com 1.10,2013-07-07 23:49:00,
2013-07-07 17:04:00,62.2,56.0,29.89,NNW,346,6.0,-999.0,80,-99.99,,,0.00,weatherlink.com 1.10,2013-07-08 00:04:00,
2013-07-07 17:19:00,62.1,56.0,29.88,NNE,16,3.0,-999.0,80,-99.99,,,0.00,weatherlink.com 1.10,2013-07-08 00:19:00,
2013-07-07 17:39:00,62.1,56.0,29.89,NE,41,14.0,-999.0,80,-99.99,,,0.00,weatherlink.com 1.10,2013-07-08 00:39:00,
2013-07-07 17:49:00,61.6,56.0,29.89,SSE,159,6.0,-999.0,82,-99.99,,,0.00,weatherlink.com 1.10,2013-07-08 00:49:00,
2013-07-07 18:04:00,59.5,54.0,29.88,SE,142,6.0,-999.0,83,-99.99,,,0.00,weatherlink.com 1.10,2013-07-08 01:04:00,
2013-07-07 18:19:00,57.8,54.0,29.88,SE,142,0.0,-999.0,88,-99.99,,,0.00,weatherlink.com 1.10,2013-07-08 01:19:00,
2013-07-07 18:39:00,59.0,56.0,29.88,ESE,103,0.0,-999.0,88,-99.99,,,0.00,weatherlink.com 1.10,2013-07-08 01:39:00,
2013-07-07 18:49:00,60.6,57.0,29.88,WSW,252,4.0,-999.0,87,-99.99,,,0.00,weatherlink.com 1.10,2013-07-08 01:49:00,
2013-07-07 19:04:00,66.5,58.0,29.88,NW,309,4.0,-999.0,75,-99.99,,,0.00,weatherlink.com 1.10,2013-07-08 02:04:00,
2013-07-07 19:19:00,66.5,58.0,29.88,WNW,297,5.0,-999.0,73,-99.99,,,0.00,weatherlink.com 1.10,2013-07-08 02:19:00,
2013-07-07 19:39:00,65.6,57.0,29.88,NW,318,4.0,-999.0,74,-99.99,,,0.00,weatherlink.com 1.10,2013-07-08 02:39:00,
2013-07-07 19:49:00,63.4,57.0,29.89,North,5,0.0,-999.0,79,-99.99,,,0.00,weatherlink.com 1.10,2013-07-08 02:49:00,
2013-07-07 20:04:00,62.3,56.0,29.89,WNW,289,7.0,-999.0,81,-99.99,,,0.00,weatherlink.com 1.10,2013-07-08 03:04:00,
2013-07-07 20:19:00,61.3,56.0,29.90,North,360,0.0,-999.0,83,-99.99,,,0.00,weatherlink.com 1.10,2013-07-08 03:19:00,
2013-07-07 20:39:00,60.4,55.0,29.90,NNE,13,0.0,-999.0,83,-99.99,,,0.00,weatherlink.com 1.10,2013-07-08 03:39:00,
2013-07-07 20:49:00,59.5,55.0,29.91,West,274,1.0,-999.0,86,-99.99,,,0.00,weatherlink.com 1.10,2013-07-08 03:49:00,
2013-07-07 21:04:00,59.0,55.0,29.90,WNW,296,3.0,-999.0,87,-99.99,,,0.00,weatherlink.com 1.10,2013-07-08 04:04:00,
2013-07-07 21:19:00,59.3,56.0,29.90,WNW,288,7.0,-999.0,87,-99.99,,,0.00,weatherlink.com 1.10,2013-07-08 04:19:00,
2013-07-07 21:39:00,59.0,55.0,29.91,NW,317,0.0,-999.0,87,-99.99,,,0.00,weatherlink.com 1.10,2013-07-08 04:39:00,
2013-07-07 21:49:00,58.0,55.0,29.91,WNW,290,5.0,-999.0,88,-99.99,,,0.00,weatherlink.com 1.10,2013-07-08 04:49:00,
2013-07-07 22:04:00,57.4,55.0,29.91,WNW,301,6.0,-999.0,90,-99.99,,,0.00,weatherlink.com 1.10,2013-07-08 05:04:00,
2013-07-07 22:19:00,57.1,54.0,29.92,WNW,287,7.0,-999.0,90,-99.99,,,0.00,weatherlink.com 1.10,2013-07-08 05:19:00,
2013-07-07 22:39:00,56.9,54.0,29.92,West,277,7.0,-999.0,91,-99.99,,,0.00,weatherlink.com 1.10,2013-07-08 05:39:00,
2013-07-07 22:49:00,56.7,54.0,29.92,West,267,4.0,-999.0,91,-99.99,,,0.00,weatherlink.com 1.10,2013-07-08 05:49:00,
2013-07-07 23:04:00,56.6,54.0,29.93,West,279,4.0,-999.0,91,-99.99,,,0.00,weatherlink.com 1.10,2013-07-08 06:04:00,
2013-07-07 23:19:00,56.4,54.0,29.93,WNW,290,2.0,-999.0,91,-99.99,,,0.00,weatherlink.com 1.10,2013-07-08 06:19:00,
2013-07-07 23:39:00,56.3,54.0,29.94,West,275,0.0,-999.0,92,-99.99,,,0.00,weatherlink.com 1.10,2013-07-08 06:39:00,
2013-07-07 23:49:00,56.2,54.0,29.94,WNW,284,0.0,-999.0,92,-99.99,,,0.00,weatherlink.com 1.10,2013-07-08 06:49:00,